createdAt,value
2023-01-08T04:21:06.912Z,100893.64
2023-01-08T04:23:34.086Z,100899.33
2023-01-08T04:26:04.895Z,100898.52
2023-01-08T04:28:32.023Z,100900.29
2023-01-08T04:30:59.191Z,100899.96
2023-01-08T04:33:26.367Z,100905.42
2023-01-08T04:35:53.531Z,100909.09
2023-01-08T04:38:20.605Z,100907.64
2023-01-08T04:40:47.578Z,100908.50
2023-01-08T04:43:14.603Z,100907.30
2023-01-08T04:45:42.063Z,100910.73
2023-01-08T04:48:09.164Z,100910.00
2023-01-08T04:50:36.178Z,100905.46
2023-01-08T04:53:03.190Z,100902.83
2023-01-08T04:55:30.185Z,100905.71
2023-01-08T04:57:57.286Z,100905.30
2023-01-08T05:00:24.336Z,100910.40
2023-01-08T05:02:51.475Z,100911.73
2023-01-08T05:05:18.727Z,100917.15
2023-01-08T05:07:45.717Z,100918.59
2023-01-08T05:10:12.874Z,100924.30
2023-01-08T05:12:40.029Z,100924.66
2023-01-08T05:15:07.636Z,100928.42
2023-01-08T05:17:34.886Z,100928.52
2023-01-08T05:20:01.989Z,100933.59
2023-01-08T05:22:29.632Z,100935.05
2023-01-08T05:24:56.648Z,100933.07
2023-01-08T05:27:23.629Z,100932.91
2023-01-08T05:29:51.950Z,100930.47
2023-01-08T05:32:19.027Z,100929.39
2023-01-08T05:34:46.363Z,100933.58
2023-01-08T05:37:13.477Z,100931.04
2023-01-08T05:39:40.486Z,100930.04
2023-01-08T05:42:07.585Z,100933.89
2023-01-08T05:44:34.578Z,100935.98
2023-01-08T05:47:01.689Z,100934.10
2023-01-08T05:49:29.042Z,100937.09
2023-01-08T05:51:56.098Z,100936.96
2023-01-08T05:54:23.171Z,100941.81
2023-01-08T05:56:50.171Z,100938.81
2023-01-08T05:59:17.423Z,100941.56
2023-01-08T06:01:44.573Z,100939.69
2023-01-08T06:04:11.681Z,100942.22
2023-01-08T06:06:38.761Z,100941.55
2023-01-08T06:09:05.752Z,100941.73
2023-01-08T06:11:33.003Z,100940.41
2023-01-08T06:14:00.228Z,100939.84
2023-01-08T06:16:27.639Z,100945.87
2023-01-08T06:18:55.356Z,100947.95
2023-01-08T06:21:22.776Z,100949.48
2023-01-08T06:23:53.225Z,100948.66
2023-01-08T06:26:23.304Z,100944.81
2023-01-08T06:28:50.365Z,100945.30
2023-01-08T06:31:17.459Z,100944.07
2023-01-08T06:33:44.575Z,100941.21
2023-01-08T06:36:14.835Z,100942.20
2023-01-08T06:38:42.039Z,100941.90
2023-01-08T06:41:11.273Z,100940.52
2023-01-08T06:43:39.073Z,100939.15
2023-01-08T06:46:06.793Z,100942.03
2023-01-08T06:48:34.416Z,100946.02
2023-01-08T06:51:02.308Z,100943.19
2023-01-08T06:53:29.994Z,100945.48
2023-01-08T06:55:59.124Z,100946.45
2023-01-08T06:58:30.753Z,100950.02
2023-01-08T07:00:59.791Z,100946.77
2023-01-08T07:03:27.555Z,100943.58
2023-01-08T10:10:26.445Z,100906.33
2023-01-08T10:12:53.701Z,100905.89
2023-01-08T10:15:21.086Z,100909.52
2023-01-08T10:18:07.288Z,100906.84
2023-01-08T10:20:34.469Z,100908.37
2023-01-08T10:23:26.477Z,100907.16
2023-01-08T10:25:57.647Z,100895.67
2023-01-08T10:28:26.694Z,100887.58
2023-01-08T10:30:54.628Z,100884.13
2023-01-08T10:33:32.033Z,100885.83
2023-01-08T10:36:01.610Z,100890.73
2023-01-08T10:38:33.438Z,100888.42
2023-01-08T10:41:02.198Z,100889.08
2023-01-08T10:43:34.941Z,100885.73
2023-01-08T10:46:07.075Z,100881.46
2023-01-08T10:48:37.015Z,100882.42
2023-01-08T10:51:07.012Z,100881.48
2023-01-08T10:53:34.827Z,100883.09
2023-01-08T10:56:03.229Z,100879.49
2023-01-08T10:58:30.765Z,100880.07
2023-01-08T11:01:31.799Z,100877.66
2023-01-08T11:04:05.117Z,100878.30
2023-01-08T11:06:39.743Z,100874.55
2023-01-08T11:09:23.741Z,100867.62
2023-01-08T11:11:51.138Z,100858.77
2023-01-08T11:14:27.447Z,100855.92
2023-01-08T11:16:55.020Z,100859.59
2023-01-08T11:19:26.296Z,100862.08
2023-01-08T11:22:01.401Z,100863.13
2023-01-08T11:24:29.620Z,100861.00
2023-01-08T11:26:58.601Z,100866.48
2023-01-08T11:29:39.149Z,100862.11
2023-01-08T11:32:19.380Z,100861.08
2023-01-08T11:35:11.440Z,100863.23
2023-01-08T11:37:45.275Z,100865.52
2023-01-08T11:40:19.235Z,100864.13
2023-01-08T11:43:01.838Z,100864.86
2023-01-08T11:45:46.389Z,100860.98
2023-01-08T11:48:22.575Z,100861.02
2023-01-08T11:51:27.521Z,100861.71
2023-01-08T11:53:55.747Z,100858.83
2023-01-08T11:56:50.519Z,100856.58
2023-01-08T11:59:21.694Z,100860.75
2023-01-08T12:01:54.967Z,100860.73
2023-01-08T12:04:28.408Z,100862.80
2023-01-08T12:07:15.632Z,100863.52
2023-01-08T12:09:46.087Z,100859.33
2023-01-08T12:12:41.608Z,100857.49
2023-01-08T12:15:15.744Z,100851.34
2023-01-08T12:18:20.160Z,100850.95
2023-01-08T12:21:08.675Z,100845.96
2023-01-08T12:23:58.559Z,100838.45
2023-01-08T12:26:31.239Z,100835.31
2023-01-08T12:29:07.737Z,100836.39
2023-01-08T12:32:09.750Z,100833.48
2023-01-08T12:34:49.554Z,100827.80
2023-01-08T12:37:31.588Z,100830.09
2023-01-08T12:40:18.315Z,100823.61
2023-01-08T12:42:47.403Z,100825.20
2023-01-08T12:45:25.938Z,100823.81
2023-01-08T12:47:57.085Z,100825.33
2023-01-08T12:50:46.967Z,100824.63
2023-01-08T12:53:48.502Z,100819.51
2023-01-08T12:56:41.266Z,100817.88
2023-01-08T12:59:27.125Z,100812.96
2023-01-08T13:02:15.365Z,100816.11
2023-01-08T13:04:49.119Z,100815.06
2023-01-08T13:07:33.429Z,100814.16
2023-01-08T13:10:03.889Z,100811.80
2023-01-08T13:12:39.556Z,100816.52
2023-01-08T13:15:20.382Z,100814.08
2023-01-08T13:17:48.787Z,100810.84
2023-01-08T13:20:24.414Z,100813.19
2023-01-08T13:22:59.514Z,100817.54
2023-01-08T13:25:40.123Z,100817.55
2023-01-08T13:28:44.111Z,100817.48
2023-01-08T13:31:21.105Z,100824.25
2023-01-08T13:33:50.070Z,100825.04
2023-01-08T13:36:27.793Z,100822.91
2023-01-08T13:39:01.613Z,100820.16
2023-01-08T13:41:31.340Z,100812.06
2023-01-08T13:44:05.605Z,100809.95
2023-01-08T13:46:34.909Z,100805.23
2023-01-08T13:49:04.265Z,100803.54
2023-01-08T13:51:38.771Z,100803.02
2023-01-08T13:54:17.794Z,100800.95
2023-01-08T18:04:53.990Z,100779.20
2023-01-08T18:07:21.426Z,100783.52
2023-01-08T18:09:49.575Z,100782.41
2023-01-08T18:12:16.677Z,100779.88
2023-01-08T18:14:44.395Z,100776.67
2023-01-08T18:17:11.852Z,100777.40
2023-01-08T18:19:38.844Z,100770.95
2023-01-08T18:22:05.949Z,100769.48
2023-01-08T18:24:33.825Z,100762.50
2023-01-08T18:27:01.258Z,100760.20
2023-01-08T18:29:28.618Z,100757.55
2023-01-08T18:31:55.722Z,100758.00
2023-01-08T18:34:22.868Z,100755.08
2023-01-08T18:36:49.948Z,100758.48
2023-01-08T18:39:17.270Z,100757.30
2023-01-08T18:42:03.355Z,100757.48
2023-01-08T18:44:30.952Z,100754.24
2023-01-08T18:46:58.042Z,100756.44
2023-01-08T18:49:27.602Z,100752.78
2023-01-08T18:51:55.107Z,100747.20
2023-01-08T18:54:22.098Z,100745.84
2023-01-08T18:56:51.288Z,100742.27
2023-01-08T18:59:18.999Z,100742.84
2023-01-08T19:01:46.154Z,100744.34
2023-01-08T19:04:19.202Z,100744.41
2023-01-08T19:07:37.814Z,100740.96
2023-01-08T19:10:05.364Z,100740.73
2023-01-08T19:12:32.946Z,100734.86
2023-01-08T19:15:00.147Z,100730.70
2023-01-08T19:17:30.438Z,100730.36
2023-01-08T19:19:57.591Z,100725.27
2023-01-08T19:22:26.961Z,100719.45
2023-01-08T20:03:52.977Z,100721.55
2023-01-08T20:06:23.036Z,100725.15
2023-01-08T20:08:51.188Z,100725.67
2023-01-08T20:11:18.317Z,100725.30
2023-01-08T20:13:45.522Z,100717.52
2023-01-08T20:16:14.348Z,100721.85
2023-01-08T20:18:41.870Z,100718.64
2023-01-08T20:21:17.391Z,100718.45
2023-01-08T20:23:44.826Z,100717.02
2023-01-08T20:26:14.784Z,100714.72
2023-01-08T20:28:42.261Z,100710.13
2023-01-08T20:31:17.131Z,100715.04
2023-01-08T20:33:44.951Z,100717.08
2023-01-08T20:36:14.819Z,100719.41
2023-01-08T20:38:42.132Z,100716.42
2023-01-08T20:41:09.932Z,100714.91
2023-01-08T20:43:38.098Z,100711.39
2023-01-08T20:46:05.776Z,100702.64
2023-01-08T20:48:36.978Z,100698.06
2023-01-08T20:51:12.921Z,100694.92
2023-01-08T20:53:40.093Z,100703.98
2023-01-08T20:56:09.217Z,100704.77
2023-01-08T20:58:36.959Z,100697.86
2023-01-08T21:01:08.439Z,100696.80
2023-01-08T21:03:36.153Z,100693.49
2023-01-08T21:06:07.783Z,100692.77
2023-01-08T21:08:34.806Z,100687.61
2023-01-08T21:11:03.371Z,100690.85
2023-01-08T21:13:30.599Z,100693.87
2023-01-08T21:16:06.370Z,100700.19
2023-01-08T21:18:33.688Z,100691.53
2023-01-08T21:21:01.476Z,100684.05
2023-01-08T21:23:29.036Z,100682.06
2023-01-08T21:25:59.544Z,100686.71
2023-01-08T21:28:26.984Z,100690.72
2023-01-08T21:30:54.137Z,100690.09
2023-01-08T21:33:21.470Z,100687.83
2023-01-08T21:35:48.641Z,100686.03
2023-01-08T21:38:15.664Z,100678.80
2023-01-08T21:40:42.739Z,100686.55
2023-01-08T21:43:30.088Z,100678.57
2023-01-08T21:46:03.598Z,100673.64
2023-01-08T21:48:30.745Z,100677.48
2023-01-08T21:50:58.000Z,100669.10
2023-01-08T21:53:36.381Z,100654.91
2023-01-08T21:56:04.466Z,100643.21
2023-01-08T21:58:31.806Z,100648.92
2023-01-08T22:00:59.167Z,100651.33
2023-01-08T22:03:26.333Z,100649.24
2023-01-08T22:06:11.537Z,100648.88
2023-01-08T22:08:38.555Z,100650.78
2023-01-08T22:11:07.272Z,100652.70
2023-01-08T22:13:35.083Z,100647.73
2023-01-08T22:16:07.994Z,100641.20
2023-01-08T22:18:35.585Z,100632.80
2023-01-08T22:21:07.529Z,100625.58
2023-01-08T22:23:34.882Z,100617.09
2023-01-08T22:26:06.109Z,100613.67
2023-01-08T22:28:34.852Z,100613.10
2023-01-08T22:31:05.951Z,100610.33
2023-01-08T22:33:33.013Z,100604.13
2023-01-08T22:36:02.727Z,100608.75
2023-01-08T22:38:29.904Z,100610.85
2023-01-08T22:40:56.979Z,100609.79
2023-01-08T22:43:24.028Z,100609.95
2023-01-08T22:46:00.214Z,100605.53
2023-01-08T22:48:27.614Z,100603.71
2023-01-08T22:50:54.879Z,100602.71
2023-01-08T22:53:21.969Z,100605.55
2023-01-08T22:55:49.118Z,100603.75
2023-01-08T22:58:16.429Z,100597.16
2023-01-08T23:00:43.851Z,100598.69
2023-01-08T23:03:11.132Z,100600.04
2023-01-08T23:05:38.493Z,100602.90
2023-01-08T23:08:06.021Z,100605.00
2023-01-08T23:10:32.993Z,100601.05
2023-01-08T23:13:00.327Z,100600.92
2023-01-08T23:15:27.660Z,100601.57
2023-01-08T23:17:54.656Z,100600.79
2023-01-08T23:20:23.428Z,100605.25
2023-01-08T23:22:50.469Z,100599.81
2023-01-08T23:25:18.057Z,100599.52
2023-01-08T23:27:45.779Z,100594.08
2023-01-08T23:30:13.033Z,100590.22
2023-01-08T23:32:40.507Z,100583.60
2023-01-08T23:35:07.839Z,100575.31
2023-01-08T23:37:34.969Z,100568.98
2023-01-08T23:40:02.074Z,100564.37
2023-01-08T23:42:29.770Z,100566.77
2023-01-08T23:44:56.759Z,100562.98
2023-01-08T23:47:23.855Z,100558.88
2023-01-08T23:49:50.960Z,100556.87
2023-01-08T23:52:18.189Z,100554.38
2023-01-08T23:54:45.193Z,100546.59
2023-01-08T23:57:12.241Z,100544.76
2023-01-08T23:59:39.262Z,100548.60
